sensor_id;sensor_type;location;lat;lon;timestamp;pressure;altitude;pressure_sealevel;temperature;humidity
50125;BME280;36023;48.670;6.184;2023-03-18T00:00:18;98501.63;;;17.15;41.36
50125;BME280;36023;48.670;6.184;2023-03-18T00:02:44;98498.16;;;17.15;41.20
50125;BME280;36023;48.670;6.184;2023-03-18T00:05:11;98500.78;;;17.15;41.23
50125;BME280;36023;48.670;6.184;2023-03-18T00:07:37;98502.56;;;17.14;41.38
50125;BME280;36023;48.670;6.184;2023-03-18T00:10:05;98504.34;;;17.14;41.21
50125;BME280;36023;48.670;6.184;2023-03-18T00:12:31;98503.41;;;17.15;41.14
50125;BME280;36023;48.670;6.184;2023-03-18T00:14:58;98505.19;;;17.14;41.28
50125;BME280;36023;48.670;6.184;2023-03-18T00:17:24;98513.03;;;17.14;41.07
50125;BME280;36023;48.670;6.184;2023-03-18T00:19:50;98512.19;;;17.14;41.13
50125;BME280;36023;48.670;6.184;2023-03-18T00:22:16;98508.78;;;17.12;40.97
50125;BME280;36023;48.670;6.184;2023-03-18T00:24:41;98512.28;;;17.12;40.84
50125;BME280;36023;48.670;6.184;2023-03-18T00:27:07;98506.16;;;17.12;40.91
50125;BME280;36023;48.670;6.184;2023-03-18T00:29:33;98507.94;;;17.11;40.92
50125;BME280;36023;48.670;6.184;2023-03-18T00:31:59;98507.09;;;17.11;40.82
50125;BME280;36023;48.670;6.184;2023-03-18T00:34:25;98506.16;;;17.12;40.62
50125;BME280;36023;48.670;6.184;2023-03-18T00:36:52;98507.09;;;17.11;40.56
50125;BME280;36023;48.670;6.184;2023-03-18T00:39:23;98512.44;;;17.09;40.67
50125;BME280;36023;48.670;6.184;2023-03-18T00:41:55;98507.09;;;17.11;40.46
50125;BME280;36023;48.670;6.184;2023-03-18T00:44:22;98501.97;;;17.09;40.40
50125;BME280;36023;48.670;6.184;2023-03-18T00:46:49;98506.25;;;17.10;40.32
50125;BME280;36023;48.670;6.184;2023-03-18T00:49:16;98510.66;;;17.10;40.46
50125;BME280;36023;48.670;6.184;2023-03-18T00:51:42;98505.41;;;17.10;40.29
50125;BME280;36023;48.670;6.184;2023-03-18T00:54:11;98515.88;;;17.10;40.28
50125;BME280;36023;48.670;6.184;2023-03-18T00:56:39;98513.25;;;17.10;40.25
50125;BME280;36023;48.670;6.184;2023-03-18T00:59:06;98512.44;;;17.09;40.26
50125;BME280;36023;48.670;6.184;2023-03-18T01:01:33;98515.03;;;17.09;40.26
50125;BME280;36023;48.670;6.184;2023-03-18T01:04:00;98508.88;;;17.10;40.13
50125;BME280;36023;48.670;6.184;2023-03-18T01:06:30;98504.56;;;17.09;40.08
50125;BME280;36023;48.670;6.184;2023-03-18T01:08:57;98501.13;;;17.09;40.13
50125;BME280;36023;48.670;6.184;2023-03-18T01:11:24;98508.97;;;17.09;40.13
50125;BME280;36023;48.670;6.184;2023-03-18T01:13:50;98508.13;;;17.08;40.02
50125;BME280;36023;48.670;6.184;2023-03-18T01:16:16;98511.59;;;17.09;39.86
50125;BME280;36023;48.670;6.184;2023-03-18T01:18:42;98504.66;;;17.08;39.87
50125;BME280;36023;48.670;6.184;2023-03-18T01:21:09;98497.66;;;17.08;39.73
50125;BME280;36023;48.670;6.184;2023-03-18T01:23:40;98493.38;;;17.07;39.61
50125;BME280;36023;48.670;6.184;2023-03-18T01:26:07;98498.59;;;17.07;39.69
50125;BME280;36023;48.670;6.184;2023-03-18T01:28:35;98492.53;;;17.07;39.63
50125;BME280;36023;48.670;6.184;2023-03-18T01:31:02;98486.44;;;17.06;39.49
50125;BME280;36023;48.670;6.184;2023-03-18T01:33:29;98490.75;;;17.07;39.66
50125;BME280;36023;48.670;6.184;2023-03-18T01:35:58;98486.44;;;17.06;39.50
50125;BME280;36023;48.670;6.184;2023-03-18T01:38:28;98494.28;;;17.06;39.52
50125;BME280;36023;48.670;6.184;2023-03-18T01:40:59;98492.63;;;17.05;39.27
50125;BME280;36023;48.670;6.184;2023-03-18T01:43:33;98485.66;;;17.04;39.50
50125;BME280;36023;48.670;6.184;2023-03-18T01:46:21;98489.16;;;17.05;39.38
50125;BME280;36023;48.670;6.184;2023-03-18T01:48:47;98483.00;;;17.06;39.26
50125;BME280;36023;48.670;6.184;2023-03-18T01:51:14;98488.28;;;17.04;39.11
50125;BME280;36023;48.670;6.184;2023-03-18T01:53:44;98486.53;;;17.05;39.39
50125;BME280;36023;48.670;6.184;2023-03-18T01:56:13;98488.28;;;17.04;39.22
50125;BME280;36023;48.670;6.184;2023-03-18T01:58:49;98496.13;;;17.04;39.23
50125;BME280;36023;48.670;6.184;2023-03-18T02:01:26;98482.22;;;17.04;39.06
50125;BME280;36023;48.670;6.184;2023-03-18T02:03:56;98482.22;;;17.04;39.08
50125;BME280;36023;48.670;6.184;2023-03-18T02:06:23;98479.59;;;17.04;39.01
50125;BME280;36023;48.670;6.184;2023-03-18T02:08:58;98480.44;;;17.04;39.06
50125;BME280;36023;48.670;6.184;2023-03-18T02:11:25;98471.84;;;17.02;39.17
50125;BME280;36023;48.670;6.184;2023-03-18T02:13:55;98481.38;;;17.03;39.27
50125;BME280;36023;48.670;6.184;2023-03-18T02:16:27;98478.75;;;17.03;38.87
50125;BME280;36023;48.670;6.184;2023-03-18T02:19:20;98479.59;;;17.04;39.02
50125;BME280;36023;48.670;6.184;2023-03-18T02:21:57;98480.44;;;17.04;38.82
50125;BME280;36023;48.670;6.184;2023-03-18T02:27:25;98483.97;;;17.03;38.96
50125;BME280;36023;48.670;6.184;2023-03-18T02:29:56;98491.84;;;17.03;38.68
50125;BME280;36023;48.670;6.184;2023-03-18T02:32:28;98494.44;;;17.03;38.89
50125;BME280;36023;48.670;6.184;2023-03-18T02:34:58;98490.91;;;17.04;38.79
50125;BME280;36023;48.670;6.184;2023-03-18T02:37:27;98488.28;;;17.04;38.78
50125;BME280;36023;48.670;6.184;2023-03-18T02:42:40;98490.06;;;17.04;38.65
50125;BME280;36023;48.670;6.184;2023-03-18T02:45:34;98497.06;;;17.03;38.55
50125;BME280;36023;48.670;6.184;2023-03-18T02:48:17;98502.28;;;17.03;38.76
50125;BME280;36023;48.670;6.184;2023-03-18T02:50:45;98498.84;;;17.03;38.75
50125;BME280;36023;48.670;6.184;2023-03-18T02:53:14;98495.38;;;17.02;38.54
50125;BME280;36023;48.670;6.184;2023-03-18T02:55:41;98498.84;;;17.03;38.47
50125;BME280;36023;48.670;6.184;2023-03-18T02:58:08;98496.31;;;17.01;38.61
50125;BME280;36023;48.670;6.184;2023-03-18T03:00:34;98493.69;;;17.01;38.54
50125;BME280;36023;48.670;6.184;2023-03-18T03:03:00;98505.94;;;17.01;38.39
50125;BME280;36023;48.670;6.184;2023-03-18T03:05:26;98509.38;;;17.01;38.34
50125;BME280;36023;48.670;6.184;2023-03-18T03:07:52;98508.56;;;17.01;38.52
50125;BME280;36023;48.670;6.184;2023-03-18T03:10:18;98505.09;;;17.00;38.03
50125;BME280;36023;48.670;6.184;2023-03-18T03:12:44;98506.78;;;17.01;38.25
50125;BME280;36023;48.670;6.184;2023-03-18T03:15:10;98515.56;;;17.00;38.28
50125;BME280;36023;48.670;6.184;2023-03-18T03:17:42;98508.56;;;17.01;38.34
50125;BME280;36023;48.670;6.184;2023-03-18T03:20:09;98505.09;;;17.00;38.25
50125;BME280;36023;48.670;6.184;2023-03-18T03:22:34;98503.41;;;16.99;38.18
50125;BME280;36023;48.670;6.184;2023-03-18T03:25:01;98499.03;;;16.99;38.19
50125;BME280;36023;48.670;6.184;2023-03-18T03:27:27;98501.63;;;16.99;38.21
50125;BME280;36023;48.670;6.184;2023-03-18T03:29:53;98504.25;;;16.99;38.14
50125;BME280;36023;48.670;6.184;2023-03-18T03:32:20;98503.41;;;16.99;38.15
50125;BME280;36023;48.670;6.184;2023-03-18T03:34:47;98506.97;;;16.98;38.03
50125;BME280;36023;48.670;6.184;2023-03-18T03:37:14;98513.03;;;16.98;38.01
50125;BME280;36023;48.670;6.184;2023-03-18T03:39:39;98516.50;;;16.99;38.04
50125;BME280;36023;48.670;6.184;2023-03-18T03:42:07;98522.56;;;16.99;38.19
50125;BME280;36023;48.670;6.184;2023-03-18T03:44:32;98521.72;;;16.99;38.08
50125;BME280;36023;48.670;6.184;2023-03-18T03:46:58;98528.72;;;16.98;38.11
50125;BME280;36023;48.670;6.184;2023-03-18T03:49:24;98526.94;;;16.99;37.95
50125;BME280;36023;48.670;6.184;2023-03-18T03:51:49;98540.03;;;16.99;38.19
50125;BME280;36023;48.670;6.184;2023-03-18T03:54:16;98540.03;;;16.99;38.15
50125;BME280;36023;48.670;6.184;2023-03-18T03:56:42;98546.19;;;16.98;38.21
50125;BME280;36023;48.670;6.184;2023-03-18T03:59:08;98543.59;;;16.98;37.91
50125;BME280;36023;48.670;6.184;2023-03-18T04:01:58;98550.50;;;16.99;38.06
50125;BME280;36023;48.670;6.184;2023-03-18T04:04:25;98552.19;;;17.00;37.78
50125;BME280;36023;48.670;6.184;2023-03-18T04:06:51;98546.94;;;17.00;38.00
50125;BME280;36023;48.670;6.184;2023-03-18T04:09:16;98549.66;;;16.98;37.91
50125;BME280;36023;48.670;6.184;2023-03-18T04:11:42;98547.88;;;16.99;38.04
50125;BME280;36023;48.670;6.184;2023-03-18T04:14:09;98546.09;;;16.99;37.93
50125;BME280;36023;48.670;6.184;2023-03-18T04:16:35;98546.94;;;17.00;37.79
50125;BME280;36023;48.670;6.184;2023-03-18T04:19:02;98541.81;;;16.98;37.64
50125;BME280;36023;48.670;6.184;2023-03-18T04:21:29;98540.97;;;16.98;37.94
50125;BME280;36023;48.670;6.184;2023-03-18T04:23:55;98547.03;;;16.98;37.95
50125;BME280;36023;48.670;6.184;2023-03-18T04:26:21;98546.19;;;16.98;37.98
50125;BME280;36023;48.670;6.184;2023-03-18T04:28:48;98537.41;;;16.99;37.88
50125;BME280;36023;48.670;6.184;2023-03-18T04:31:15;98540.13;;;16.97;37.85
50125;BME280;36023;48.670;6.184;2023-03-18T04:33:41;98542.75;;;16.97;37.74
50125;BME280;36023;48.670;6.184;2023-03-18T04:36:09;98543.66;;;16.96;37.71
50125;BME280;36023;48.670;6.184;2023-03-18T04:38:37;98545.34;;;16.97;37.87
50125;BME280;36023;48.670;6.184;2023-03-18T04:41:06;98552.34;;;16.97;37.80
50125;BME280;36023;48.670;6.184;2023-03-18T04:43:32;98550.66;;;16.96;37.65
50125;BME280;36023;48.670;6.184;2023-03-18T04:45:58;98540.19;;;16.96;37.81
50125;BME280;36023;48.670;6.184;2023-03-18T04:48:24;98543.66;;;16.96;37.67
50125;BME280;36023;48.670;6.184;2023-03-18T04:50:53;98545.41;;;16.96;37.71
50125;BME280;36023;48.670;6.184;2023-03-18T04:53:24;98547.19;;;16.95;37.59
50125;BME280;36023;48.670;6.184;2023-03-18T04:55:51;98548.03;;;16.96;37.58
50125;BME280;36023;48.670;6.184;2023-03-18T04:58:21;98550.66;;;16.96;37.21
50125;BME280;36023;48.670;6.184;2023-03-18T05:01:08;98548.97;;;16.95;37.56
50125;BME280;36023;48.670;6.184;2023-03-18T05:03:36;98546.34;;;16.95;37.47
50125;BME280;36023;48.670;6.184;2023-03-18T05:06:03;98541.09;;;16.95;37.48
50125;BME280;36023;48.670;6.184;2023-03-18T05:08:39;98542.03;;;16.94;37.39
50125;BME280;36023;48.670;6.184;2023-03-18T05:11:05;98543.81;;;16.93;37.28
50125;BME280;36023;48.670;6.184;2023-03-18T05:13:33;98546.34;;;16.95;37.81
50125;BME280;36023;48.670;6.184;2023-03-18T05:16:00;98549.88;;;16.94;37.34
50125;BME280;36023;48.670;6.184;2023-03-18T05:18:25;98542.03;;;16.94;37.33
50125;BME280;36023;48.670;6.184;2023-03-18T05:20:52;98542.97;;;16.93;37.23
50125;BME280;36023;48.670;6.184;2023-03-18T05:23:19;98553.44;;;16.93;37.28
50125;BME280;36023;48.670;6.184;2023-03-18T05:25:52;98545.59;;;16.93;37.25
50125;BME280;36023;48.670;6.184;2023-03-18T05:28:20;98545.59;;;16.93;37.42
50125;BME280;36023;48.670;6.184;2023-03-18T05:31:24;98542.97;;;16.93;37.39
50125;BME280;36023;48.670;6.184;2023-03-18T05:33:50;98544.75;;;16.92;37.21
50125;BME280;36023;48.670;6.184;2023-03-18T05:36:17;98547.38;;;16.92;37.08
50125;BME280;36023;48.670;6.184;2023-03-18T05:39:05;98554.38;;;16.92;37.22
50125;BME280;36023;48.670;6.184;2023-03-18T05:41:31;98559.59;;;16.92;37.13
50125;BME280;36023;48.670;6.184;2023-03-18T05:43:58;98550.91;;;16.91;37.19
50125;BME280;36023;48.670;6.184;2023-03-18T05:46:25;98552.69;;;16.91;37.12
50125;BME280;36023;48.670;6.184;2023-03-18T05:49:04;98558.75;;;16.91;37.19
50125;BME280;36023;48.670;6.184;2023-03-18T05:51:39;98559.59;;;16.92;37.28
50125;BME280;36023;48.670;6.184;2023-03-18T05:54:08;98559.59;;;16.92;37.14
50125;BME280;36023;48.670;6.184;2023-03-18T05:56:39;98555.22;;;16.92;37.30
50125;BME280;36023;48.670;6.184;2023-03-18T05:59:09;98554.38;;;16.92;36.94
50125;BME280;36023;48.670;6.184;2023-03-18T06:01:42;98554.38;;;16.92;37.10
50125;BME280;36023;48.670;6.184;2023-03-18T06:04:09;98561.28;;;16.93;36.99
50125;BME280;36023;48.670;6.184;2023-03-18T06:06:35;98558.66;;;16.93;36.94
50125;BME280;36023;48.670;6.184;2023-03-18T06:09:07;98559.59;;;16.92;37.20
50125;BME280;36023;48.670;6.184;2023-03-18T06:11:33;98557.06;;;16.90;36.96
50125;BME280;36023;48.670;6.184;2023-03-18T06:13:59;98557.91;;;16.91;36.94
50125;BME280;36023;48.670;6.184;2023-03-18T06:16:24;98566.69;;;16.90;37.09
50125;BME280;36023;48.670;6.184;2023-03-18T06:18:53;98559.69;;;16.90;36.94
50125;BME280;36023;48.670;6.184;2023-03-18T06:21:19;98562.31;;;16.90;36.89
50125;BME280;36023;48.670;6.184;2023-03-18T06:23:45;98572.75;;;16.90;36.97
50125;BME280;36023;48.670;6.184;2023-03-18T06:26:11;98571.09;;;16.89;37.08
50125;BME280;36023;48.670;6.184;2023-03-18T06:28:44;98574.53;;;16.90;36.83
50125;BME280;36023;48.670;6.184;2023-03-18T06:31:10;98579.78;;;16.90;36.82
50125;BME280;36023;48.670;6.184;2023-03-18T06:33:38;98582.38;;;16.90;36.86
50125;BME280;36023;48.670;6.184;2023-03-18T06:36:06;98591.16;;;16.89;36.62
50125;BME280;36023;48.670;6.184;2023-03-18T06:38:33;98597.28;;;16.88;36.61
50125;BME280;36023;48.670;6.184;2023-03-18T06:41:01;98605.13;;;16.88;36.41
50125;BME280;36023;48.670;6.184;2023-03-18T06:43:31;98601.69;;;16.87;36.33
50125;BME280;36023;48.670;6.184;2023-03-18T06:45:58;98603.44;;;16.87;36.73
50125;BME280;36023;48.670;6.184;2023-03-18T06:48:24;98606.06;;;16.87;36.16
50125;BME280;36023;48.670;6.184;2023-03-18T06:50:49;98606.06;;;16.87;36.30
50125;BME280;36023;48.670;6.184;2023-03-18T06:53:21;98605.31;;;16.85;36.41
50125;BME280;36023;48.670;6.184;2023-03-18T06:55:48;98607.00;;;16.86;36.35
50125;BME280;36023;48.670;6.184;2023-03-18T06:58:16;98600.94;;;16.85;36.43
50125;BME280;36023;48.670;6.184;2023-03-18T07:00:49;98611.38;;;16.85;36.34
50125;BME280;36023;48.670;6.184;2023-03-18T07:03:20;98616.63;;;16.85;36.21
50125;BME280;36023;48.670;6.184;2023-03-18T07:05:47;98611.38;;;16.85;36.29
50125;BME280;36023;48.670;6.184;2023-03-18T07:08:13;98610.53;;;16.85;36.10
50125;BME280;36023;48.670;6.184;2023-03-18T07:10:40;98607.94;;;16.85;36.15
50125;BME280;36023;48.670;6.184;2023-03-18T07:13:10;98618.38;;;16.85;36.16
50125;BME280;36023;48.670;6.184;2023-03-18T07:15:39;98620.16;;;16.84;35.99
50125;BME280;36023;48.670;6.184;2023-03-18T07:18:06;98615.78;;;16.85;36.29
50125;BME280;36023;48.670;6.184;2023-03-18T07:20:31;98608.84;;;16.84;36.15
50125;BME280;36023;48.670;6.184;2023-03-18T07:22:59;98607.94;;;16.85;36.20
50125;BME280;36023;48.670;6.184;2023-03-18T07:25:26;98608.00;;;16.83;36.28
50125;BME280;36023;48.670;6.184;2023-03-18T07:27:52;98611.47;;;16.84;36.11
50125;BME280;36023;48.670;6.184;2023-03-18T07:30:17;98602.78;;;16.83;36.07
50125;BME280;36023;48.670;6.184;2023-03-18T07:32:44;98608.84;;;16.84;35.89
50125;BME280;36023;48.670;6.184;2023-03-18T07:35:10;98615.03;;;16.83;35.80
50125;BME280;36023;48.670;6.184;2023-03-18T07:37:40;98619.31;;;16.84;36.17
50125;BME280;36023;48.670;6.184;2023-03-18T07:40:10;98615.88;;;16.83;35.96
50125;BME280;36023;48.670;6.184;2023-03-18T07:42:36;98610.63;;;16.83;35.97
50125;BME280;36023;48.670;6.184;2023-03-18T07:45:04;98611.47;;;16.84;35.83
50125;BME280;36023;48.670;6.184;2023-03-18T07:47:30;98619.31;;;16.84;35.99
50125;BME280;36023;48.670;6.184;2023-03-18T07:49:56;98615.03;;;16.83;36.02
50125;BME280;36023;48.670;6.184;2023-03-18T07:52:22;98615.03;;;16.83;35.92
50125;BME280;36023;48.670;6.184;2023-03-18T07:54:48;98612.41;;;16.83;35.76
50125;BME280;36023;48.670;6.184;2023-03-18T07:57:17;98608.84;;;16.84;35.86
50125;BME280;36023;48.670;6.184;2023-03-18T07:59:44;98608.84;;;16.84;36.00
50125;BME280;36023;48.670;6.184;2023-03-18T08:02:11;98598.41;;;16.84;36.06
50125;BME280;36023;48.670;6.184;2023-03-18T08:04:39;98598.50;;;16.82;36.04
50125;BME280;36023;48.670;6.184;2023-03-18T08:07:05;98597.56;;;16.83;36.03
50125;BME280;36023;48.670;6.184;2023-03-18T08:09:30;98603.72;;;16.82;36.02
50125;BME280;36023;48.670;6.184;2023-03-18T08:11:56;98606.34;;;16.82;36.03
50125;BME280;36023;48.670;6.184;2023-03-18T08:14:22;98616.78;;;16.82;36.03
50125;BME280;36023;48.670;6.184;2023-03-18T08:16:49;98618.56;;;16.82;35.98
50125;BME280;36023;48.670;6.184;2023-03-18T08:19:14;98627.25;;;16.82;36.06
50125;BME280;36023;48.670;6.184;2023-03-18T08:21:40;98628.19;;;16.81;36.11
50125;BME280;36023;48.670;6.184;2023-03-18T08:24:07;98631.56;;;16.83;36.14
50125;BME280;36023;48.670;6.184;2023-03-18T08:26:34;98634.16;;;16.83;36.25
50125;BME280;36023;48.670;6.184;2023-03-18T08:29:00;98634.16;;;16.83;36.35
50125;BME280;36023;48.670;6.184;2023-03-18T08:31:26;98644.63;;;16.83;36.20
50125;BME280;36023;48.670;6.184;2023-03-18T08:33:51;98648.09;;;16.84;36.10
50125;BME280;36023;48.670;6.184;2023-03-18T08:36:20;98642.84;;;16.84;36.37
50125;BME280;36023;48.670;6.184;2023-03-18T08:38:47;98642.00;;;16.83;36.16
50125;BME280;36023;48.670;6.184;2023-03-18T08:41:14;98642.00;;;16.83;36.28
50125;BME280;36023;48.670;6.184;2023-03-18T08:43:41;98642.00;;;16.83;36.47
50125;BME280;36023;48.670;6.184;2023-03-18T08:46:07;98641.09;;;16.84;36.65
50125;BME280;36023;48.670;6.184;2023-03-18T08:48:33;98640.25;;;16.84;36.43
50125;BME280;36023;48.670;6.184;2023-03-18T08:51:03;98648.94;;;16.84;36.53
50125;BME280;36023;48.670;6.184;2023-03-18T08:53:29;98653.31;;;16.84;36.50
50125;BME280;36023;48.670;6.184;2023-03-18T08:55:55;98661.16;;;16.84;36.40
50125;BME280;36023;48.670;6.184;2023-03-18T08:58:24;98661.09;;;16.85;36.48
50125;BME280;36023;48.670;6.184;2023-03-18T09:01:01;98656.78;;;16.84;36.24
50125;BME280;36023;48.670;6.184;2023-03-18T09:04:04;98648.19;;;16.82;36.10
50125;BME280;36023;48.670;6.184;2023-03-18T09:06:30;98642.94;;;16.82;36.14
50125;BME280;36023;48.670;6.184;2023-03-18T09:08:55;98651.63;;;16.83;36.22
50125;BME280;36023;48.670;6.184;2023-03-18T09:11:22;98656.03;;;16.82;36.10
50125;BME280;36023;48.670;6.184;2023-03-18T09:13:48;98655.19;;;16.82;36.22
50125;BME280;36023;48.670;6.184;2023-03-18T09:16:13;98645.56;;;16.82;36.17
50125;BME280;36023;48.670;6.184;2023-03-18T09:18:39;98636.88;;;16.82;36.30
50125;BME280;36023;48.670;6.184;2023-03-18T09:21:05;98626.41;;;16.82;36.32
50125;BME280;36023;48.670;6.184;2023-03-18T09:23:31;98622.94;;;16.81;36.30
50125;BME280;36023;48.670;6.184;2023-03-18T09:26:00;98629.03;;;16.82;36.23
50125;BME280;36023;48.670;6.184;2023-03-18T09:28:26;98633.31;;;16.83;36.37
50125;BME280;36023;48.670;6.184;2023-03-18T09:30:52;98639.50;;;16.82;36.36
50125;BME280;36023;48.670;6.184;2023-03-18T09:33:18;98634.16;;;16.83;36.55
50125;BME280;36023;48.670;6.184;2023-03-18T09:35:45;98641.09;;;16.84;36.58
50125;BME280;36023;48.670;6.184;2023-03-18T09:38:13;98644.53;;;16.85;36.46
50125;BME280;36023;48.670;6.184;2023-03-18T09:49:18;98646.22;;;16.86;36.70
50125;BME280;36023;48.670;6.184;2023-03-18T09:57:02;98637.53;;;16.85;36.92
50125;BME280;36023;48.670;6.184;2023-03-18T09:59:42;98647.91;;;16.87;36.89
50125;BME280;36023;48.670;6.184;2023-03-18T10:02:22;98650.53;;;16.87;37.02
50125;BME280;36023;48.670;6.184;2023-03-18T10:04:55;98650.53;;;16.87;37.02
50125;BME280;36023;48.670;6.184;2023-03-18T10:07:28;98651.38;;;16.87;36.98
50125;BME280;36023;48.670;6.184;2023-03-18T10:10:08;98649.69;;;16.86;37.12
50125;BME280;36023;48.670;6.184;2023-03-18T10:12:42;98652.31;;;16.86;36.94
50125;BME280;36023;48.670;6.184;2023-03-18T10:15:30;98650.53;;;16.87;37.14
50125;BME280;36023;48.670;6.184;2023-03-18T10:18:34;98641.84;;;16.86;37.15
50125;BME280;36023;48.670;6.184;2023-03-18T10:26:46;98637.53;;;16.85;37.06
50125;BME280;36023;48.670;6.184;2023-03-18T10:29:30;98641.00;;;16.86;37.11
50125;BME280;36023;48.670;6.184;2023-03-18T10:32:02;98640.16;;;16.85;37.30
50125;BME280;36023;48.670;6.184;2023-03-18T10:34:39;98633.25;;;16.84;37.24
50125;BME280;36023;48.670;6.184;2023-03-18T10:37:23;98638.47;;;16.84;37.11
50125;BME280;36023;48.670;6.184;2023-03-18T10:39:54;98631.56;;;16.83;37.20
50125;BME280;36023;48.670;6.184;2023-03-18T10:42:24;98635.00;;;16.84;37.17
50125;BME280;36023;48.670;6.184;2023-03-18T10:44:51;98630.63;;;16.84;37.13
50125;BME280;36023;48.670;6.184;2023-03-18T10:47:26;98629.78;;;16.84;37.23
50125;BME280;36023;48.670;6.184;2023-03-18T10:50:12;98626.31;;;16.83;37.24
50125;BME280;36023;48.670;6.184;2023-03-18T10:52:49;98628.94;;;16.83;37.27
50125;BME280;36023;48.670;6.184;2023-03-18T10:55:21;98622.88;;;16.83;37.39
50125;BME280;36023;48.670;6.184;2023-03-18T10:57:51;98621.09;;;16.83;37.48
50125;BME280;36023;48.670;6.184;2023-03-18T11:00:27;98625.41;;;16.84;37.53
50125;BME280;36023;48.670;6.184;2023-03-18T11:02:54;98622.78;;;16.84;37.53
50125;BME280;36023;48.670;6.184;2023-03-18T11:05:28;98622.78;;;16.84;37.63
50125;BME280;36023;48.670;6.184;2023-03-18T11:08:06;98623.63;;;16.85;37.54
50125;BME280;36023;48.670;6.184;2023-03-18T11:10:45;98625.31;;;16.86;37.94
50125;BME280;36023;48.670;6.184;2023-03-18T11:13:18;98627.00;;;16.87;38.32
50125;BME280;36023;48.670;6.184;2023-03-18T11:15:50;98624.25;;;16.90;38.37
50125;BME280;36023;48.670;6.184;2023-03-18T11:18:20;98625.75;;;16.94;38.35
50125;BME280;36023;48.670;6.184;2023-03-18T11:20:54;98621.22;;;16.97;38.51
50125;BME280;36023;48.670;6.184;2023-03-18T11:23:36;98614.13;;;16.99;38.32
50125;BME280;36023;48.670;6.184;2023-03-18T11:26:24;98613.09;;;17.02;38.48
50125;BME280;36023;48.670;6.184;2023-03-18T11:28:57;98611.25;;;17.04;38.40
50125;BME280;36023;48.670;6.184;2023-03-18T11:31:23;98621.66;;;17.06;38.58
50125;BME280;36023;48.670;6.184;2023-03-18T11:33:49;98616.31;;;17.07;38.52
50125;BME280;36023;48.670;6.184;2023-03-18T11:36:22;98617.00;;;17.11;38.72
50125;BME280;36023;48.670;6.184;2023-03-18T11:38:57;98606.53;;;17.11;38.51
50125;BME280;36023;48.670;6.184;2023-03-18T11:41:27;98617.69;;;17.14;38.83
50125;BME280;36023;48.670;6.184;2023-03-18T11:46:46;98605.34;;;17.16;38.79
50125;BME280;36023;48.670;6.184;2023-03-18T11:49:16;98612.28;;;17.17;38.60
50125;BME280;36023;48.670;6.184;2023-03-18T12:08:11;98595.06;;;17.45;41.69
50125;BME280;36023;48.670;6.184;2023-03-18T12:14:23;98592.38;;;17.46;42.36
50125;BME280;36023;48.670;6.184;2023-03-18T12:28:22;98577.31;;;17.50;43.63
50125;BME280;36023;48.670;6.184;2023-03-18T12:31:08;98580.88;;;17.49;43.41
50125;BME280;36023;48.670;6.184;2023-03-18T12:34:00;98579.19;;;17.48;43.60
50125;BME280;36023;48.670;6.184;2023-03-18T12:42:09;98565.59;;;17.41;43.22
50125;BME280;36023;48.670;6.184;2023-03-18T12:50:22;98557.81;;;17.40;43.57
50125;BME280;36023;48.670;6.184;2023-03-18T12:53:03;98550.81;;;17.40;43.69
50125;BME280;36023;48.670;6.184;2023-03-18T12:55:40;98551.66;;;17.41;43.51
50125;BME280;36023;48.670;6.184;2023-03-18T12:58:18;98552.50;;;17.41;43.63
50125;BME280;36023;48.670;6.184;2023-03-18T13:00:48;98542.88;;;17.42;43.42
50125;BME280;36023;48.670;6.184;2023-03-18T13:03:30;98544.66;;;17.41;43.57
50125;BME280;36023;48.670;6.184;2023-03-18T13:14:00;98547.94;;;17.45;43.82
50125;BME280;36023;48.670;6.184;2023-03-18T13:16:29;98541.88;;;17.44;43.87
50125;BME280;36023;48.670;6.184;2023-03-18T13:18:56;98534.75;;;17.46;43.98
50125;BME280;36023;48.670;6.184;2023-03-18T13:21:28;98542.53;;;17.48;43.84
50125;BME280;36023;48.670;6.184;2023-03-18T13:24:17;98538.97;;;17.49;44.03
50125;BME280;36023;48.670;6.184;2023-03-18T13:30:28;98542.38;;;17.51;44.03
50125;BME280;36023;48.670;6.184;2023-03-18T13:38:04;98547.63;;;17.51;44.25
50125;BME280;36023;48.670;6.184;2023-03-18T13:43:10;98553.69;;;17.51;44.18
50125;BME280;36023;48.670;6.184;2023-03-18T13:45:40;98549.28;;;17.52;44.24
50125;BME280;36023;48.670;6.184;2023-03-18T13:48:12;98545.75;;;17.53;44.24
50125;BME280;36023;48.670;6.184;2023-03-18T13:50:43;98541.34;;;17.53;44.47
50125;BME280;36023;48.670;6.184;2023-03-18T13:53:27;98547.41;;;17.54;44.51
50125;BME280;36023;48.670;6.184;2023-03-18T13:58:26;98543.97;;;17.53;44.54
50125;BME280;36023;48.670;6.184;2023-03-18T14:03:20;98550.97;;;17.53;44.66
50125;BME280;36023;48.670;6.184;2023-03-18T14:05:50;98543.97;;;17.53;44.77
50125;BME280;36023;48.670;6.184;2023-03-18T14:14:02;98536.09;;;17.53;44.65
50125;BME280;36023;48.670;6.184;2023-03-18T14:21:45;98544.91;;;17.52;44.82
50125;BME280;36023;48.670;6.184;2023-03-18T14:32:02;98525.72;;;17.52;45.06
50125;BME280;36023;48.670;6.184;2023-03-18T14:34:34;98526.66;;;17.51;45.06
50125;BME280;36023;48.670;6.184;2023-03-18T14:37:23;98519.66;;;17.51;45.36
50125;BME280;36023;48.670;6.184;2023-03-18T14:39:51;98522.28;;;17.51;45.27
50125;BME280;36023;48.670;6.184;2023-03-18T14:42:35;98523.13;;;17.52;45.17
50125;BME280;36023;48.670;6.184;2023-03-18T14:45:22;98524.78;;;17.53;45.26
50125;BME280;36023;48.670;6.184;2023-03-18T14:47:51;98517.78;;;17.53;45.30
50125;BME280;36023;48.670;6.184;2023-03-18T14:53:01;98513.19;;;17.57;45.26
50125;BME280;36023;48.670;6.184;2023-03-18T14:55:34;98504.59;;;17.55;45.33
50125;BME280;36023;48.670;6.184;2023-03-18T14:58:01;98515.81;;;17.57;45.51
50125;BME280;36023;48.670;6.184;2023-03-18T15:00:29;98511.41;;;17.58;45.39
50125;BME280;36023;48.670;6.184;2023-03-18T15:03:04;98513.09;;;17.59;45.49
50125;BME280;36023;48.670;6.184;2023-03-18T15:05:36;98504.41;;;17.58;45.25
50125;BME280;36023;48.670;6.184;2023-03-18T15:08:07;98496.56;;;17.58;45.22
50125;BME280;36023;48.670;6.184;2023-03-18T15:10:34;98500.88;;;17.59;45.33